Snow/Ice From: 16-12-2017 16:00 Until: 17-12-2017 16:00 warning for: Snow/Ice Level: Yellow info button

Although rather usual in this region, locally or potentially dangerous phenomena are expected. (such as local winds, summer thunderstorms, rising streams or high waves) Be aware and pay attention to the latest weather updates, especially if you carry out activities exposed to weather or close to a stream or shoreline. 


Meteo18 Weather Cam more information Meteo18 Weather Cam


Thunder radar more information blitzortung!


warning for Snow/Ice more information rain snow radar


Visit our other weather sites:

Template documentation
and downloads

And another site



Weather Underground History page Text

Daily Summary for August 16, 2016 Units:  Metric    English   Both
« Previous Day
Next Day »
Daily Weekly Monthly Yearly Custom
  High: Low: Average:
Temperature: 34.1 °C 16.6 °C 25.8 °C
Dew Point: 16.8 °C 12.9 °C 14.7 °C
Humidity: 81 % 29 % 53 %
Wind Speed: 9.7 km/h 0.0 km/h 3 km/h
Wind Gust: 22.5 km/h - -
Wind:- - SSW
Pressure: 1016.5 hPa 1010.7 hPa -
Precipitation: 0.0 mm    
Historical Graphs
 
 
Tabular Data for August 16, 2016
Time Temperature Dew Point Pressure Wind Wind Speed Wind Gust Humidity Rainfall Rate (Hourly)
00:02 23.5 °C 13.9 °C 1016.1 hPa North 1.6 km/h 9.7 km/h 55 % 0.0 mm
00:07 23.4 °C 13.8 °C 1016.1 hPa North 1.6 km/h 9.7 km/h 55 % 0.0 mm
00:12 23.3 °C 14.0 °C 1016.5 hPa Calm   9.7 km/h 56 % 0.0 mm
00:17 23.2 °C 13.9 °C 1016.5 hPa East 1.6 km/h 9.7 km/h 56 % 0.0 mm
00:22 22.9 °C 13.9 °C 1016.5 hPa Calm   6.4 km/h 57 % 0.0 mm
00:32 22.4 °C 14.0 °C 1016.1 hPa WSW 1.6 km/h 4.8 km/h 59 % 0.0 mm
00:42 22.2 °C 14.1 °C 1016.1 hPa Calm   1.6 km/h 60 % 0.0 mm
00:52 22.2 °C 14.1 °C 1016.1 hPa Calm   1.6 km/h 60 % 0.0 mm
00:57 22.0 °C 14.1 °C 1015.8 hPa NNW 6.4 km/h 6.4 km/h 61 % 0.0 mm
01:02 21.9 °C 14.0 °C 1015.8 hPa North 4.8 km/h 8.0 km/h 61 % 0.0 mm
01:12 21.7 °C 14.1 °C 1015.5 hPa NNW 3.2 km/h 8.0 km/h 62 % 0.0 mm
01:17 21.6 °C 14.0 °C 1015.5 hPa North 4.8 km/h 8.0 km/h 62 % 0.0 mm
01:22 21.6 °C 14.0 °C 1015.5 hPa North 6.4 km/h 8.0 km/h 62 % 0.0 mm
01:32 21.7 °C 13.8 °C 1015.5 hPa NNW 6.4 km/h 9.7 km/h 61 % 0.0 mm
01:37 21.8 °C 13.9 °C 1015.5 hPa NNE 4.8 km/h 9.7 km/h 61 % 0.0 mm
01:42 21.8 °C 13.9 °C 1015.1 hPa North 4.8 km/h 9.7 km/h 61 % 0.0 mm
01:52 21.7 °C 13.8 °C 1015.1 hPa NNW 3.2 km/h 9.7 km/h 61 % 0.0 mm
01:57 21.7 °C 13.8 °C 1015.1 hPa North 6.4 km/h 8.0 km/h 61 % 0.0 mm
02:02 21.6 °C 14.0 °C 1015.1 hPa NNW 4.8 km/h 8.0 km/h 62 % 0.0 mm
02:07 21.4 °C 13.8 °C 1014.8 hPa NNW 4.8 km/h 8.0 km/h 62 % 0.0 mm
02:12 21.3 °C 14.0 °C 1014.8 hPa North 4.8 km/h 6.4 km/h 63 % 0.0 mm
02:17 21.2 °C 13.9 °C 1014.8 hPa NW 3.2 km/h 8.0 km/h 63 % 0.0 mm
02:22 21.2 °C 13.9 °C 1014.8 hPa NE 4.8 km/h 9.7 km/h 63 % 0.0 mm
02:27 21.2 °C 13.9 °C 1014.8 hPa NNE 8.0 km/h 9.7 km/h 63 % 0.0 mm
02:32 21.2 °C 13.9 °C 1014.8 hPa NNW 4.8 km/h 9.7 km/h 63 % 0.0 mm
02:42 20.9 °C 13.8 °C 1014.8 hPa NNW 4.8 km/h 11.3 km/h 64 % 0.0 mm
02:47 20.9 °C 13.8 °C 1014.8 hPa North 4.8 km/h 11.3 km/h 64 % 0.0 mm
02:52 21.2 °C 14.1 °C 1014.8 hPa NNW 3.2 km/h 14.5 km/h 64 % 0.0 mm
02:57 21.2 °C 14.1 °C 1014.8 hPa Calm   14.5 km/h 64 % 0.0 mm
03:02 21.1 °C 14.0 °C 1014.8 hPa NNW 4.8 km/h 14.5 km/h 64 % 0.0 mm
03:07 21.0 °C 13.9 °C 1014.8 hPa ENE 1.6 km/h 8.0 km/h 64 % 0.0 mm
03:12 20.7 °C 13.9 °C 1015.1 hPa North 1.6 km/h 8.0 km/h 65 % 0.0 mm
03:17 20.5 °C 13.9 °C 1015.1 hPa NE 3.2 km/h 8.0 km/h 66 % 0.0 mm
03:22 20.4 °C 14.1 °C 1014.8 hPa NNE 1.6 km/h 4.8 km/h 67 % 0.0 mm
03:27 20.3 °C 14.0 °C 1015.1 hPa NNE 3.2 km/h 8.0 km/h 67 % 0.0 mm
03:32 20.5 °C 14.2 °C 1014.8 hPa North 8.0 km/h 11.3 km/h 67 % 0.0 mm
03:37 20.6 °C 14.0 °C 1014.8 hPa Calm   11.3 km/h 66 % 0.0 mm
03:42 20.5 °C 13.9 °C 1014.8 hPa NW 3.2 km/h 11.3 km/h 66 % 0.0 mm
03:52 20.3 °C 14.0 °C 1014.8 hPa North 3.2 km/h 9.7 km/h 67 % 0.0 mm
03:57 20.3 °C 14.0 °C 1014.8 hPa NNE 3.2 km/h 9.7 km/h 67 % 0.0 mm
04:02 20.2 °C 14.1 °C 1014.8 hPa North 6.4 km/h 9.7 km/h 68 % 0.0 mm
04:12 20.3 °C 14.2 °C 1014.8 hPa North 4.8 km/h 8.0 km/h 68 % 0.0 mm
04:17 20.3 °C 14.2 °C 1014.8 hPa NNW 4.8 km/h 8.0 km/h 68 % 0.0 mm
04:22 20.3 °C 14.2 °C 1014.8 hPa NNW 3.2 km/h 8.0 km/h 68 % 0.0 mm
04:32 20.3 °C 14.2 °C 1014.8 hPa North 6.4 km/h 8.0 km/h 68 % 0.0 mm
04:37 20.3 °C 14.2 °C 1014.8 hPa NW 3.2 km/h 8.0 km/h 68 % 0.0 mm
04:42 20.2 °C 14.1 °C 1014.8 hPa Calm   6.4 km/h 68 % 0.0 mm
04:47 20.1 °C 14.0 °C 1014.8 hPa Calm   6.4 km/h 68 % 0.0 mm
04:52 20.0 °C 14.1 °C 1014.8 hPa Calm   6.4 km/h 69 % 0.0 mm
04:57 19.9 °C 14.0 °C 1014.8 hPa NW 1.6 km/h 3.2 km/h 69 % 0.0 mm
05:02 19.8 °C 14.2 °C 1014.8 hPa Calm   1.6 km/h 70 % 0.0 mm
05:12 19.5 °C 14.1 °C 1014.8 hPa NNW 1.6 km/h 1.6 km/h 71 % 0.0 mm
05:17 19.3 °C 13.9 °C 1014.8 hPa North 1.6 km/h 1.6 km/h 71 % 0.0 mm
05:22 19.0 °C 13.8 °C 1014.8 hPa Calm   4.8 km/h 72 % 0.0 mm
05:32 18.7 °C 13.8 °C 1014.8 hPa Calm   4.8 km/h 73 % 0.0 mm
05:42 18.4 °C 13.7 °C 1014.8 hPa NNW 1.6 km/h 4.8 km/h 74 % 0.0 mm
05:47 18.2 °C 13.7 °C 1014.8 hPa Calm   4.8 km/h 75 % 0.0 mm
05:52 18.1 °C 13.8 °C 1014.8 hPa Calm   3.2 km/h 76 % 0.0 mm
05:57 18.0 °C 13.7 °C 1014.4 hPa NW 1.6 km/h 3.2 km/h 76 % 0.0 mm
06:02 18.0 °C 13.7 °C 1014.4 hPa NNW 1.6 km/h 3.2 km/h 76 % 0.0 mm
06:12 17.5 °C 13.4 °C 1014.4 hPa WNW 1.6 km/h 3.2 km/h 77 % 0.0 mm
06:17 17.4 °C 13.5 °C 1014.4 hPa Calm   3.2 km/h 78 % 0.0 mm
06:22 17.5 °C 13.6 °C 1014.4 hPa Calm   3.2 km/h 78 % 0.0 mm
06:32 17.3 °C 13.4 °C 1014.4 hPa Calm   3.2 km/h 78 % 0.0 mm
06:42 16.9 °C 13.2 °C 1014.8 hPa Calm   1.6 km/h 79 % 0.0 mm
06:52 16.8 °C 13.5 °C 1014.8 hPa NNW 1.6 km/h 1.6 km/h 81 % 0.0 mm
07:02 16.8 °C 13.5 °C 1014.8 hPa NW 1.6 km/h 3.2 km/h 81 % 0.0 mm
07:12 16.6 °C 13.3 °C 1014.8 hPa Calm   3.2 km/h 81 % 0.0 mm
07:17 16.7 °C 13.4 °C 1014.8 hPa Calm   4.8 km/h 81 % 0.0 mm
07:22 16.8 °C 13.5 °C 1014.8 hPa Calm   3.2 km/h 81 % 0.0 mm
07:32 17.2 °C 13.9 °C 1014.8 hPa Calm   1.6 km/h 81 % 0.0 mm
07:37 17.3 °C 13.8 °C 1014.8 hPa Calm   1.6 km/h 80 % 0.0 mm
07:42 17.4 °C 13.7 °C 1014.8 hPa WNW 1.6 km/h 1.6 km/h 79 % 0.0 mm
07:52 17.7 °C 14.2 °C 1014.8 hPa NW 1.6 km/h 3.2 km/h 80 % 0.0 mm
07:57 18.0 °C 14.3 °C 1014.8 hPa Calm   3.2 km/h 79 % 0.0 mm
08:02 18.3 °C 14.6 °C 1014.8 hPa NW 1.6 km/h 3.2 km/h 79 % 0.0 mm
08:12 18.6 °C 14.7 °C 1014.8 hPa Calm   3.2 km/h 78 % 0.0 mm
08:17 18.8 °C 14.7 °C 1014.8 hPa Calm   4.8 km/h 77 % 0.0 mm
08:22 18.9 °C 14.8 °C 1014.8 hPa NNW 1.6 km/h 4.8 km/h 77 % 0.0 mm
08:42 19.6 °C 15.0 °C 1014.4 hPa NNE 4.8 km/h 6.4 km/h 75 % 0.0 mm
08:52 20.2 °C 15.4 °C 1014.8 hPa NE 1.6 km/h 8.0 km/h 74 % 0.0 mm
08:57 20.4 °C 15.4 °C 1014.8 hPa ENE 3.2 km/h 8.0 km/h 73 % 0.0 mm
09:02 20.7 °C 15.7 °C 1014.8 hPa NNE 3.2 km/h 4.8 km/h 73 % 0.0 mm
09:12 21.1 °C 15.9 °C 1014.8 hPa East 4.8 km/h 4.8 km/h 72 % 0.0 mm
09:17 21.2 °C 15.7 °C 1014.8 hPa ENE 4.8 km/h 6.4 km/h 71 % 0.0 mm
09:22 21.5 °C 16.0 °C 1014.8 hPa Calm   6.4 km/h 71 % 0.0 mm
09:32 21.9 °C 16.2 °C 1014.8 hPa NNE 4.8 km/h 8.0 km/h 70 % 0.0 mm
09:42 22.2 °C 16.2 °C 1014.8 hPa NNE 6.4 km/h 8.0 km/h 69 % 0.0 mm
09:47 22.3 °C 16.1 °C 1014.4 hPa ENE 3.2 km/h 9.7 km/h 68 % 0.0 mm
09:52 22.6 °C 15.9 °C 1014.8 hPa NE 4.8 km/h 9.7 km/h 66 % 0.0 mm
10:02 23.2 °C 16.0 °C 1014.4 hPa Calm   9.7 km/h 64 % 0.0 mm
10:12 23.3 °C 15.9 °C 1014.4 hPa ENE 4.8 km/h 8.0 km/h 63 % 0.0 mm
10:17 23.6 °C 16.1 °C 1014.4 hPa Calm   6.4 km/h 63 % 0.0 mm
10:22 24.0 °C 16.3 °C 1014.4 hPa NE 6.4 km/h 6.4 km/h 62 % 0.0 mm
10:27 24.3 °C 16.3 °C 1014.4 hPa NNW 1.6 km/h 6.4 km/h 61 % 0.0 mm
10:32 24.6 °C 16.6 °C 1014.4 hPa ENE 3.2 km/h 6.4 km/h 61 % 0.0 mm
10:42 24.6 °C 16.6 °C 1014.4 hPa NE 3.2 km/h 8.0 km/h 61 % 0.0 mm
10:52 24.7 °C 16.4 °C 1014.4 hPa ESE 1.6 km/h 11.3 km/h 60 % 0.0 mm
11:02 24.9 °C 16.6 °C 1014.4 hPa ENE 6.4 km/h 11.3 km/h 60 % 0.0 mm
11:12 25.1 °C 16.3 °C 1014.4 hPa East 1.6 km/h 11.3 km/h 58 % 0.0 mm
11:17 25.4 °C 16.5 °C 1014.4 hPa SSE 1.6 km/h 11.3 km/h 58 % 0.0 mm
11:22 25.9 °C 16.7 °C 1014.4 hPa NE 3.2 km/h 9.7 km/h 57 % 0.0 mm
11:27 26.1 °C 16.4 °C 1014.1 hPa East 8.0 km/h 8.0 km/h 55 % 0.0 mm
11:32 26.2 °C 16.2 °C 1014.1 hPa NNE 1.6 km/h 8.0 km/h 54 % 0.0 mm
11:37 26.4 °C 16.3 °C 1014.1 hPa Calm   9.7 km/h 54 % 0.0 mm
11:42 26.9 °C 16.5 °C 1014.1 hPa NNE 3.2 km/h 9.7 km/h 53 % 0.0 mm
11:47 26.9 °C 16.5 °C 1014.1 hPa NNE 4.8 km/h 8.0 km/h 53 % 0.0 mm
11:57 27.1 °C 16.4 °C 1014.1 hPa ENE 1.6 km/h 8.0 km/h 52 % 0.0 mm
12:02 27.3 °C 16.3 °C 1014.1 hPa Calm   9.7 km/h 51 % 0.0 mm
12:07 28.2 °C 16.8 °C 1014.1 hPa ENE 3.2 km/h 9.7 km/h 50 % 0.0 mm
12:12 28.2 °C 16.1 °C 1014.1 hPa NNE 8.0 km/h 8.0 km/h 48 % 0.0 mm
12:17 28.1 °C 16.4 °C 1014.1 hPa SE 3.2 km/h 6.4 km/h 49 % 0.0 mm
12:22 28.1 °C 16.1 °C 1013.8 hPa Calm   9.7 km/h 48 % 0.0 mm
12:27 28.4 °C 16.0 °C 1013.8 hPa WSW 3.2 km/h 9.7 km/h 47 % 0.0 mm
12:32 28.6 °C 16.2 °C 1013.8 hPa Calm   9.7 km/h 47 % 0.0 mm
12:42 29.6 °C 16.1 °C 1013.8 hPa SSE 4.8 km/h 6.4 km/h 44 % 0.0 mm
12:47 29.7 °C 16.1 °C 1013.8 hPa NNE 1.6 km/h 6.4 km/h 44 % 0.0 mm
12:52 29.5 °C 16.0 °C 1013.8 hPa NE 4.8 km/h 9.7 km/h 44 % 0.0 mm
12:57 29.4 °C 15.9 °C 1013.8 hPa East 1.6 km/h 9.7 km/h 44 % 0.0 mm
13:02 29.9 °C 16.0 °C 1013.8 hPa SW 1.6 km/h 9.7 km/h 43 % 0.0 mm
13:07 30.4 °C 15.7 °C 1013.8 hPa Calm   8.0 km/h 41 % 0.0 mm
13:12 30.5 °C 15.4 °C 1013.4 hPa ESE 3.2 km/h 6.4 km/h 40 % 0.0 mm
13:17 30.7 °C 15.5 °C 1013.4 hPa SSE 1.6 km/h 6.4 km/h 40 % 0.0 mm
13:22 30.3 °C 15.2 °C 1013.4 hPa Calm   9.7 km/h 40 % 0.0 mm
13:42 30.5 °C 15.0 °C 1013.4 hPa ENE 3.2 km/h 11.3 km/h 39 % 0.0 mm
13:47 30.9 °C 14.1 °C 1013.4 hPa East 3.2 km/h 11.3 km/h 36 % 0.0 mm
13:52 30.8 °C 14.8 °C 1013.4 hPa ESE 6.4 km/h 12.9 km/h 38 % 0.0 mm
13:57 31.1 °C 15.5 °C 1013.4 hPa East 1.6 km/h 12.9 km/h 39 % 0.0 mm
14:02 31.4 °C 15.4 °C 1013.4 hPa SSW 3.2 km/h 11.3 km/h 38 % 0.0 mm
14:07 31.5 °C 15.5 °C 1013.4 hPa East 3.2 km/h 8.0 km/h 38 % 0.0 mm
14:12 31.4 °C 15.0 °C 1013.1 hPa East 6.4 km/h 8.0 km/h 37 % 0.0 mm
14:22 31.3 °C 14.9 °C 1013.1 hPa ENE 4.8 km/h 11.3 km/h 37 % 0.0 mm
14:32 31.9 °C 15.4 °C 1013.1 hPa SE 3.2 km/h 14.5 km/h 37 % 0.0 mm
14:37 31.8 °C 14.9 °C 1013.1 hPa WSW 4.8 km/h 14.5 km/h 36 % 0.0 mm
14:42 31.3 °C 14.4 °C 1012.8 hPa West 1.6 km/h 9.7 km/h 36 % 0.0 mm
14:47 31.6 °C 15.5 °C 1012.8 hPa Calm   9.7 km/h 38 % 0.0 mm
14:52 32.1 °C 14.3 °C 1012.8 hPa ENE 4.8 km/h 11.3 km/h 34 % 0.0 mm
15:02 32.4 °C 14.5 °C 1012.8 hPa East 1.6 km/h 11.3 km/h 34 % 0.0 mm
15:12 31.7 °C 14.4 °C 1012.8 hPa NE 8.0 km/h 22.5 km/h 35 % 0.0 mm
15:17 32.0 °C 15.1 °C 1012.8 hPa SW 3.2 km/h 22.5 km/h 36 % 0.0 mm
15:22 32.5 °C 14.1 °C 1012.8 hPa WSW 6.4 km/h 20.9 km/h 33 % 0.0 mm
15:27 32.5 °C 14.6 °C 1012.8 hPa WSW 3.2 km/h 11.3 km/h 34 % 0.0 mm
15:32 32.7 °C 14.3 °C 1012.4 hPa SE 6.4 km/h 11.3 km/h 33 % 0.0 mm
15:37 32.3 °C 14.4 °C 1012.4 hPa Calm   11.3 km/h 34 % 0.0 mm
15:42 32.8 °C 14.4 °C 1012.4 hPa ENE 4.8 km/h 11.3 km/h 33 % 0.0 mm
15:47 32.3 °C 13.5 °C 1012.4 hPa Calm   8.0 km/h 32 % 0.0 mm
15:52 32.3 °C 14.0 °C 1012.4 hPa East 3.2 km/h 8.0 km/h 33 % 0.0 mm
15:57 32.7 °C 14.3 °C 1012.1 hPa East 1.6 km/h 8.0 km/h 33 % 0.0 mm
16:02 33.1 °C 13.7 °C 1012.1 hPa SSW 6.4 km/h 6.4 km/h 31 % 0.0 mm
16:07 32.7 °C 13.4 °C 1012.1 hPa South 6.4 km/h 12.9 km/h 31 % 0.0 mm
16:12 32.8 °C 13.4 °C 1012.1 hPa SSW 4.8 km/h 12.9 km/h 31 % 0.0 mm
16:17 32.7 °C 13.4 °C 1012.1 hPa ESE 3.2 km/h 12.9 km/h 31 % 0.0 mm
16:22 32.6 °C 13.8 °C 1012.1 hPa SW 6.4 km/h 11.3 km/h 32 % 0.0 mm
16:32 32.2 °C 13.4 °C 1012.1 hPa SSW 3.2 km/h 12.9 km/h 32 % 0.0 mm
16:37 32.0 °C 13.7 °C 1012.1 hPa Calm   12.9 km/h 33 % 0.0 mm
16:42 32.2 °C 13.9 °C 1011.7 hPa Calm   9.7 km/h 33 % 0.0 mm
16:47 32.3 °C 14.0 °C 1011.7 hPa NNE 1.6 km/h 6.4 km/h 33 % 0.0 mm
16:52 32.3 °C 14.0 °C 1011.7 hPa NW 3.2 km/h 3.2 km/h 33 % 0.0 mm
16:57 32.1 °C 13.8 °C 1011.7 hPa Calm   6.4 km/h 33 % 0.0 mm
17:02 32.2 °C 13.9 °C 1011.7 hPa NW 3.2 km/h 6.4 km/h 33 % 0.0 mm
17:07 32.2 °C 13.4 °C 1011.7 hPa NNE 1.6 km/h 6.4 km/h 32 % 0.0 mm
17:12 32.2 °C 13.9 °C 1011.4 hPa Calm   9.7 km/h 33 % 0.0 mm
17:17 32.4 °C 13.6 °C 1011.4 hPa NNW 3.2 km/h 9.7 km/h 32 % 0.0 mm
17:22 32.6 °C 13.3 °C 1011.4 hPa WSW 3.2 km/h 9.7 km/h 31 % 0.0 mm
17:27 33.0 °C 13.6 °C 1011.4 hPa Calm   8.0 km/h 31 % 0.0 mm
17:32 33.6 °C 13.6 °C 1011.4 hPa Calm   8.0 km/h 30 % 0.0 mm
17:37 34.1 °C 14.1 °C 1011.4 hPa ESE 1.6 km/h 3.2 km/h 30 % 0.0 mm
17:42 33.8 °C 13.3 °C 1011.4 hPa West 4.8 km/h 4.8 km/h 29 % 0.0 mm
17:47 33.1 °C 13.7 °C 1011.4 hPa NNE 1.6 km/h 9.7 km/h 31 % 0.0 mm
17:52 32.7 °C 13.4 °C 1011.4 hPa NNE 1.6 km/h 9.7 km/h 31 % 0.0 mm
17:57 32.3 °C 13.5 °C 1011.1 hPa Calm   9.7 km/h 32 % 0.0 mm
18:02 31.9 °C 13.6 °C 1011.1 hPa ENE 1.6 km/h 4.8 km/h 33 % 0.0 mm
18:12 32.7 °C 13.4 °C 1011.1 hPa ENE 3.2 km/h 6.4 km/h 31 % 0.0 mm
18:17 32.4 °C 13.1 °C 1011.1 hPa ENE 9.7 km/h 9.7 km/h 31 % 0.0 mm
18:22 32.4 °C 13.1 °C 1011.1 hPa SE 3.2 km/h 12.9 km/h 31 % 0.0 mm
18:32 32.7 °C 13.4 °C 1010.7 hPa Calm   12.9 km/h 31 % 0.0 mm
18:37 33.4 °C 12.9 °C 1010.7 hPa SW 1.6 km/h 8.0 km/h 29 % 0.0 mm
18:42 33.5 °C 13.5 °C 1010.7 hPa WNW 4.8 km/h 8.0 km/h 30 % 0.0 mm
18:52 33.1 °C 13.7 °C 1010.7 hPa NW 4.8 km/h 9.7 km/h 31 % 0.0 mm
19:02 32.7 °C 13.8 °C 1010.7 hPa NW 4.8 km/h 17.7 km/h 32 % 0.0 mm
19:07 32.6 °C 13.8 °C 1010.7 hPa NNW 4.8 km/h 17.7 km/h 32 % 0.0 mm
19:12 32.4 °C 13.6 °C 1010.7 hPa NNW 4.8 km/h 17.7 km/h 32 % 0.0 mm
19:17 32.3 °C 14.4 °C 1010.7 hPa North 3.2 km/h 12.9 km/h 34 % 0.0 mm
19:22 32.2 °C 14.8 °C 1010.7 hPa NNE 8.0 km/h 12.9 km/h 35 % 0.0 mm
19:27 31.9 °C 15.0 °C 1010.7 hPa North 8.0 km/h 16.1 km/h 36 % 0.0 mm
19:32 31.8 °C 14.9 °C 1010.7 hPa NW 4.8 km/h 16.1 km/h 36 % 0.0 mm
19:37 31.8 °C 14.9 °C 1010.7 hPa NW 4.8 km/h 16.1 km/h 36 % 0.0 mm
19:42 31.7 °C 14.8 °C 1010.7 hPa North 8.0 km/h 14.5 km/h 36 % 0.0 mm
19:47 31.4 °C 15.0 °C 1010.7 hPa NNW 8.0 km/h 12.9 km/h 37 % 0.0 mm
19:52 31.4 °C 15.4 °C 1010.7 hPa NNW 9.7 km/h 16.1 km/h 38 % 0.0 mm
19:57 31.4 °C 15.0 °C 1010.7 hPa West 4.8 km/h 16.1 km/h 37 % 0.0 mm
20:02 31.3 °C 14.9 °C 1010.7 hPa NNW 1.6 km/h 14.5 km/h 37 % 0.0 mm
20:07 31.2 °C 14.8 °C 1010.7 hPa WNW 8.0 km/h 11.3 km/h 37 % 0.0 mm
20:12 31.0 °C 15.0 °C 1010.7 hPa NW 1.6 km/h 11.3 km/h 38 % 0.0 mm
20:17 30.9 °C 14.9 °C 1010.7 hPa North 8.0 km/h 11.3 km/h 38 % 0.0 mm
20:22 30.7 °C 15.2 °C 1010.7 hPa WNW 1.6 km/h 11.3 km/h 39 % 0.0 mm
20:27 30.4 °C 14.9 °C 1011.1 hPa North 4.8 km/h 9.7 km/h 39 % 0.0 mm
20:32 30.2 °C 15.1 °C 1011.1 hPa NW 4.8 km/h 9.7 km/h 40 % 0.0 mm
20:42 29.6 °C 15.3 °C 1011.1 hPa NW 3.2 km/h 6.4 km/h 42 % 0.0 mm
20:57 28.6 °C 15.2 °C 1011.1 hPa NW 1.6 km/h 4.8 km/h 44 % 0.0 mm
21:02 28.3 °C 15.2 °C 1011.1 hPa NW 1.6 km/h 4.8 km/h 45 % 0.0 mm
21:07 28.1 °C 15.4 °C 1011.1 hPa NW 1.6 km/h 4.8 km/h 46 % 0.0 mm
21:12 27.8 °C 15.1 °C 1011.4 hPa Calm   4.8 km/h 46 % 0.0 mm
21:17 27.5 °C 15.5 °C 1011.4 hPa NW 1.6 km/h 4.8 km/h 48 % 0.0 mm
21:22 27.3 °C 15.3 °C 1011.4 hPa WNW 3.2 km/h 4.8 km/h 48 % 0.0 mm
21:32 26.8 °C 15.5 °C 1011.4 hPa NNW 4.8 km/h 4.8 km/h 50 % 0.0 mm
21:37 26.6 °C 15.3 °C 1011.4 hPa NNW 6.4 km/h 6.4 km/h 50 % 0.0 mm
21:42 26.5 °C 15.5 °C 1011.4 hPa NW 4.8 km/h 6.4 km/h 51 % 0.0 mm
21:47 26.4 °C 15.4 °C 1011.4 hPa NNW 4.8 km/h 6.4 km/h 51 % 0.0 mm
21:52 26.3 °C 15.7 °C 1011.4 hPa NNW 3.2 km/h 6.4 km/h 52 % 0.0 mm
21:57 26.2 °C 15.6 °C 1011.4 hPa NW 3.2 km/h 6.4 km/h 52 % 0.0 mm
22:02 26.0 °C 15.7 °C 1011.4 hPa NW 3.2 km/h 6.4 km/h 53 % 0.0 mm
22:12 25.7 °C 15.7 °C 1011.7 hPa NW 4.8 km/h 6.4 km/h 54 % 0.0 mm
22:17 25.6 °C 15.9 °C 1011.7 hPa WNW 3.2 km/h 6.4 km/h 55 % 0.0 mm
22:22 25.4 °C 15.7 °C 1011.4 hPa NW 3.2 km/h 6.4 km/h 55 % 0.0 mm
22:27 25.4 °C 15.7 °C 1011.4 hPa WNW 3.2 km/h 6.4 km/h 55 % 0.0 mm
22:32 25.4 °C 15.7 °C 1011.4 hPa NW 3.2 km/h 6.4 km/h 55 % 0.0 mm
22:37 25.4 °C 15.7 °C 1011.4 hPa NW 4.8 km/h 8.0 km/h 55 % 0.0 mm
22:42 25.4 °C 15.7 °C 1011.7 hPa North 4.8 km/h 8.0 km/h 55 % 0.0 mm
22:47 25.4 °C 15.7 °C 1011.4 hPa WNW 1.6 km/h 6.4 km/h 55 % 0.0 mm
22:57 25.2 °C 15.8 °C 1011.4 hPa WNW 1.6 km/h 4.8 km/h 56 % 0.0 mm
23:02 25.2 °C 15.8 °C 1011.4 hPa NNW 3.2 km/h 6.4 km/h 56 % 0.0 mm
23:07 25.3 °C 15.6 °C 1011.4 hPa WNW 1.6 km/h 6.4 km/h 55 % 0.0 mm
23:12 25.2 °C 15.5 °C 1011.4 hPa NW 3.2 km/h 6.4 km/h 55 % 0.0 mm
23:17 25.1 °C 15.4 °C 1011.4 hPa Calm   6.4 km/h 55 % 0.0 mm
23:22 25.1 °C 15.4 °C 1011.4 hPa NNW 1.6 km/h 6.4 km/h 55 % 0.0 mm
23:27 25.2 °C 15.5 °C 1011.7 hPa WNW 1.6 km/h 8.0 km/h 55 % 0.0 mm
23:32 25.1 °C 15.4 °C 1011.4 hPa NW 3.2 km/h 8.0 km/h 55 % 0.0 mm
23:37 25.1 °C 15.4 °C 1011.7 hPa NW 3.2 km/h 8.0 km/h 55 % 0.0 mm
23:42 24.9 °C 15.5 °C 1011.7 hPa NW 4.8 km/h 8.0 km/h 56 % 0.0 mm
23:47 24.8 °C 15.4 °C 1011.7 hPa WNW 1.6 km/h 8.0 km/h 56 % 0.0 mm
23:52 24.7 °C 15.6 °C 1011.7 hPa NW 1.6 km/h 8.0 km/h 57 % 0.0 mm
23:57 24.4 °C 15.3 °C 1011.4 hPa WNW 3.2 km/h 8.0 km/h 57 % 0.0 mm
Meteo18
Compliments of Weather Underground - 4 mb

Script developed by  Jim McMurry - jmcmurry@mwt.net Adapted for the template by  Wim van der Kuil - Leuven-Template.eu

You find our weather info also at:

European Weather Network

Weather Underground

Equipment we use:

Weather-station
Davis Vue

Weather-program
Meteohub

Weather-server
Raspberry PI 2 B+

Provider
1 and 1

Davis Vue

Meteohub

Raspberry PI 2 B+

1 and 1